River Plate Estuary, Argentina
Current Conditions -  °F | °C
As of 3:00 PM on Saturday 20 Dec 2014 (Local Time) from SUMU Reporting Station
Overcast Overcast  
Wind Chill: 21°   Ceiling: 8000
Heat Index: 21°   Visibility: 6mi
Dew Point: 19°   Wind: 8mph
Humidity: 88%   Direction: 180°S
Pressure: 29.53"   Gusts: NA
Location:  35°S, 57°W
Report Text: SUMU 201800Z 18007KT 9999 FEW020 OVC080 21/19 Q1000 NOSIG
Loading
Personal Weather Stations






























Interactive Weather Map New forecast layout! Learn more

10-Day Weather Forecast

Advertisements
Track Severe Weather on mobile